Time;durP1;ratioP1;P1;durP2;ratioP2;P2;SDS_P1;SDS_P2;PMS_P1;PMS_P2;Temp;Humidity;BMP_temperature;BMP_pressure;BME280_temperature;BME280_humidity;BME280_pressure;Samples;Min_cycle;Max_cycle;Signal;HPM_P1;HPM_P2
2023/05/05 00:02:14;;;;;;;;;;;20.60;56.50;;;20.77;39.50;98682.84;4920970;28;118554;-75
2023/05/05 00:04:47;;;;;;;;;;;20.50;56.50;;;20.77;39.67;98684.81;4904582;28;118765;-75
2023/05/05 00:07:13;;;;;;;;;;;20.50;56.60;;;20.76;39.25;98677.59;4904359;28;124439;-75
2023/05/05 00:09:45;;;;;;;;;;;20.50;56.70;;;20.74;39.69;98680.81;4908928;28;123810;-76
2023/05/05 00:12:11;;;;;;;;;;;20.50;56.80;;;20.73;39.62;98682.00;4903337;28;120270;-77
2023/05/05 00:14:37;;;;;;;;;;;20.50;56.80;;;20.72;39.72;98683.19;4908467;28;119644;-79
2023/05/05 00:17:04;;;;;;;;;;;20.50;57.00;;;20.70;39.66;98680.75;4907094;28;124332;-75
2023/05/05 00:19:36;;;;;;;;;;;20.50;57.10;;;20.69;39.66;98679.16;4915090;28;123948;-74
2023/05/05 00:22:03;;;;;;;;;;;20.40;57.10;;;20.69;39.71;98670.72;4913027;28;120066;-77
2023/05/05 00:24:33;;;;;;;;;;;20.40;57.20;;;20.68;39.70;98676.72;4914713;28;118607;-75
2023/05/05 00:27:01;;;;;;;;;;;20.40;57.30;;;20.67;39.78;98673.09;4913110;28;124703;-75
2023/05/05 00:29:45;;;;;;;;;;;20.40;57.30;;;20.66;39.79;98673.47;4913119;28;124215;-77
2023/05/05 00:32:15;;;;;;;;;;;20.40;57.40;;;20.66;39.77;98676.28;4907509;28;118687;-75
2023/05/05 00:34:49;;;;;;;;;;;20.40;57.60;;;20.63;40.27;98674.25;4930408;28;117064;-75
2023/05/05 00:37:17;;;;;;;;;;;20.30;57.60;;;20.60;40.26;98672.22;4912163;28;125297;-75
2023/05/05 00:39:46;;;;;;;;;;;20.30;57.60;;;20.58;40.00;98668.97;4909184;28;128580;-75
2023/05/05 00:42:13;;;;;;;;;;;20.30;57.70;;;20.59;40.07;98684.63;4908634;28;119744;-75
2023/05/05 00:44:40;;;;;;;;;;;20.30;57.90;;;20.56;40.26;98679.78;4906646;28;118647;-76
2023/05/05 00:47:10;;;;;;;;;;;20.30;58.10;;;20.54;40.35;98680.16;4894827;28;122800;-75
2023/05/05 00:49:37;;;;;;;;;;;20.30;58.20;;;20.51;40.53;98683.72;4910686;28;124332;-75
2023/05/05 00:52:04;;;;;;;;;;;20.30;58.30;;;20.50;40.39;98676.50;4909059;28;119561;-75
2023/05/05 00:54:34;;;;;;;;;;;20.20;58.40;;;20.48;40.57;98676.06;4904570;28;118159;-76
2023/05/05 00:57:01;;;;;;;;;;;20.20;58.50;;;20.45;40.49;98676.81;4906567;28;124710;-75
2023/05/05 00:59:33;;;;;;;;;;;20.20;58.60;;;20.42;40.84;98669.97;4909711;28;123703;-76
2023/05/05 01:02:00;;;;;;;;;;;20.20;58.70;;;20.40;40.89;98674.34;4906936;28;120577;-78
2023/05/05 01:04:26;;;;;;;;;;;20.10;58.80;;;20.37;40.78;98675.13;4904434;28;119120;-76
2023/05/05 01:07:13;;;;;;;;;;;20.10;59.00;;;20.33;41.09;98672.25;4900104;28;124263;-75
2023/05/05 01:10:01;;;;;;;;;;;20.10;59.10;;;20.30;41.05;98673.81;4920182;28;124030;-74
2023/05/05 01:12:37;;;;;;;;;;;20.10;59.20;;;20.28;41.32;98669.78;4907773;28;118956;-75
2023/05/05 01:15:14;;;;;;;;;;;20.00;59.30;;;20.25;41.24;98670.53;4904683;28;121045;-74
2023/05/05 01:17:47;;;;;;;;;;;20.00;59.50;;;20.24;41.51;98668.94;4901383;28;125072;-76
2023/05/05 01:20:37;;;;;;;;;;;20.00;59.60;;;20.21;41.79;98670.50;4901857;28;123779;-74
2023/05/05 01:23:11;;;;;;;;;;;20.00;59.80;;;20.17;41.56;98663.22;4912236;28;119869;-75
2023/05/05 01:26:04;;;;;;;;;;;20.00;60.00;;;20.14;41.54;98661.16;4903890;28;118699;-74
2023/05/05 01:29:02;;;;;;;;;;;19.90;60.00;;;20.10;41.59;98663.94;4907624;28;124861;-75
2023/05/05 01:31:50;;;;;;;;;;;19.90;60.10;;;20.10;41.82;98669.53;4875728;28;124029;-75
2023/05/05 01:34:37;;;;;;;;;;;19.90;60.40;;;20.06;41.76;98665.88;4905231;28;120700;-75
2023/05/05 01:37:11;;;;;;;;;;;19.80;60.50;;;20.04;41.93;98659.81;4921067;28;119168;-74
2023/05/05 01:39:39;;;;;;;;;;;19.80;60.60;;;20.02;42.26;98656.59;4908439;28;124190;-76
2023/05/05 01:42:17;;;;;;;;;;;19.80;60.80;;;20.01;42.04;98654.97;4911884;28;123050;-75
2023/05/05 01:44:48;;;;;;;;;;;19.80;60.80;;;19.99;42.18;98657.38;4911695;28;118771;-77
2023/05/05 01:47:23;;;;;;;;;;;19.70;60.90;;;19.97;42.23;98663.34;4912428;28;118220;-74
2023/05/05 01:49:50;;;;;;;;;;;19.70;61.00;;;19.96;42.30;98664.53;4908886;28;124228;-76
2023/05/05 01:52:17;;;;;;;;;;;19.70;61.10;;;19.97;42.15;98665.34;4891633;28;122819;-77
2023/05/05 01:54:45;;;;;;;;;;;19.70;61.20;;;19.94;42.39;98661.31;4907879;28;120729;-74
2023/05/05 01:57:15;;;;;;;;;;;19.70;61.40;;;19.94;42.33;98668.91;4911623;28;119825;-75
2023/05/05 01:59:48;;;;;;;;;;;19.70;61.50;;;19.93;42.73;98653.25;4908049;28;124241;-76
2023/05/05 02:02:16;;;;;;;;;;;19.70;61.70;;;19.92;42.68;98662.88;4909291;28;123774;-74
2023/05/05 02:04:45;;;;;;;;;;;19.70;61.80;;;19.90;42.71;98671.66;4893586;28;118362;-76
2023/05/05 02:07:12;;;;;;;;;;;19.60;61.90;;;19.88;42.75;98667.59;4920341;28;119260;-76
2023/05/05 02:09:44;;;;;;;;;;;19.60;62.10;;;19.86;42.97;98665.19;4904580;28;124790;-76
2023/05/05 02:12:11;;;;;;;;;;;19.60;62.30;;;19.85;43.23;98667.19;4897868;28;124196;-76
2023/05/05 02:14:38;;;;;;;;;;;19.60;62.40;;;19.83;43.14;98663.94;4905138;28;119524;-76
2023/05/05 02:17:04;;;;;;;;;;;19.50;62.50;;;19.83;43.19;98666.75;4905533;28;118557;-75
2023/05/05 02:19:37;;;;;;;;;;;19.50;62.60;;;19.81;43.35;98671.94;4906351;28;124303;-76
2023/05/05 02:22:03;;;;;;;;;;;19.50;62.80;;;19.80;43.47;98670.31;4903041;28;124648;-75
2023/05/05 02:24:35;;;;;;;;;;;19.50;62.90;;;19.79;43.53;98667.88;4903560;28;119423;-77
2023/05/05 02:27:08;;;;;;;;;;;19.50;63.10;;;19.76;43.56;98680.66;4907045;28;118458;-76
2023/05/05 02:29:39;;;;;;;;;;;19.50;63.20;;;19.73;43.73;98684.22;4909342;28;123194;-75
2023/05/05 02:32:27;;;;;;;;;;;19.50;63.40;;;19.70;43.54;98681.38;4908800;28;123789;-75
2023/05/05 02:34:53;;;;;;;;;;;19.40;63.40;;;19.68;43.87;98683.72;4887651;28;118564;-77
2023/05/05 02:37:28;;;;;;;;;;;19.40;63.60;;;19.65;44.01;98686.06;4903267;28;117481;-75
2023/05/05 02:40:04;;;;;;;;;;;19.40;63.70;;;;;;4908732;28;123644;-76
2023/05/05 02:42:38;;;;;;;;;;;19.40;63.90;;;19.60;43.90;98688.38;4906661;28;124402;-74
2023/05/05 02:45:16;;;;;;;;;;;19.30;63.90;;;19.58;44.08;98694.34;4913315;28;120267;-76
2023/05/05 02:47:42;;;;;;;;;;;19.30;64.00;;;19.55;44.03;98688.69;4906907;28;119759;-76
2023/05/05 02:50:19;;;;;;;;;;;19.30;64.10;;;19.53;44.18;98693.84;4906736;28;123479;-75
2023/05/05 02:52:52;;;;;;;;;;;19.30;65.00;;;19.52;44.27;98689.44;4906598;28;124024;-75
2023/05/05 02:55:18;;;;;;;;;;;19.30;64.40;;;19.50;44.39;98689.00;4907040;28;120160;-75
2023/05/05 02:58:29;;;;;;;;;;;19.20;64.40;;;19.45;44.28;98698.56;4891450;28;117727;-75
2023/05/05 03:01:25;;;;;;;;;;;19.20;64.50;;;19.42;44.29;98691.72;4854506;28;124752;-77
2023/05/05 03:04:15;;;;;;;;;;;19.20;64.70;;;19.40;44.24;98696.06;4904063;28;124778;-79
2023/05/05 03:06:42;;;;;;;;;;;19.20;64.80;;;19.40;44.50;98694.06;4900305;28;120109;-76
2023/05/05 03:09:27;;;;;;;;;;;19.20;65.00;;;19.39;44.33;98695.22;4905575;28;119608;-80
2023/05/05 03:12:08;;;;;;;;;;;19.10;65.10;;;19.37;44.69;98706.03;4908218;28;124127;-80
2023/05/05 03:14:42;;;;;;;;;;;19.10;65.20;;;19.36;44.64;98704.38;4897083;28;125430;-78
2023/05/05 03:17:16;;;;;;;;;;;19.10;65.40;;;19.36;44.80;98710.00;4906096;28;118491;-75
2023/05/05 03:19:43;;;;;;;;;;;19.10;65.60;;;19.35;44.58;98708.38;4903598;28;118760;-76
2023/05/05 03:22:09;;;;;;;;;;;19.10;65.70;;;19.35;44.65;98711.19;4908511;28;124167;-78
2023/05/05 03:24:37;;;;;;;;;;;19.00;65.70;;;19.34;44.83;98703.16;4904055;28;123846;-78
2023/05/05 03:27:03;;;;;;;;;;;19.10;65.90;;;19.34;44.99;98706.78;4910039;28;119588;-78
2023/05/05 03:29:30;;;;;;;;;;;19.10;66.10;;;19.35;45.07;98701.97;4911115;28;118778;-79
2023/05/05 03:32:01;;;;;;;;;;;19.00;66.10;;;19.35;45.08;98701.97;4910577;28;124756;-79
2023/05/05 03:34:29;;;;;;;;;;;19.00;66.20;;;19.34;45.21;98703.97;4907487;28;124044;-75
2023/05/05 03:36:57;;;;;;;;;;;19.00;66.40;;;19.33;45.18;98699.53;4901566;28;120587;-75
2023/05/05 03:39:25;;;;;;;;;;;19.00;66.50;;;19.33;45.30;98702.34;4908097;28;119406;-76
2023/05/05 03:41:52;;;;;;;;;;;19.00;66.60;;;19.31;45.44;98699.09;4907063;28;124402;-76
2023/05/05 03:44:18;;;;;;;;;;;19.00;66.80;;;19.31;45.41;98696.28;4901501;28;124277;-79
2023/05/05 03:46:44;;;;;;;;;;;19.00;66.90;;;19.32;45.55;98705.53;4906090;28;119620;-75
2023/05/05 03:49:13;;;;;;;;;;;19.00;67.10;;;19.30;45.66;98699.47;4903232;28;119108;-75
2023/05/05 03:51:40;;;;;;;;;;;19.00;67.20;;;19.28;45.72;98708.25;4909670;28;123566;-76
2023/05/05 03:54:06;;;;;;;;;;;19.00;67.40;;;19.29;45.70;98703.44;4903847;28;124178;-78
2023/05/05 03:56:34;;;;;;;;;;;19.00;67.50;;;19.28;45.49;98699.84;4903895;28;119998;-79
2023/05/05 03:59:02;;;;;;;;;;;19.00;67.60;;;19.28;45.66;98719.44;4905217;28;118370;-76
2023/05/05 04:01:28;;;;;;;;;;;19.00;67.70;;;19.30;45.71;98713.50;4906869;28;124118;-75
2023/05/05 04:03:55;;;;;;;;;;;19.00;67.80;;;19.29;45.75;98711.84;4905043;28;123968;-78
2023/05/05 04:06:21;;;;;;;;;;;19.00;67.90;;;19.27;45.80;98709.44;4906314;28;119490;-80
2023/05/05 04:08:50;;;;;;;;;;;18.90;67.90;;;19.26;45.86;98710.59;4903399;28;119385;-78
2023/05/05 04:11:17;;;;;;;;;;;18.90;68.10;;;19.27;45.86;98711.44;4902500;28;124786;-75
2023/05/05 04:13:45;;;;;;;;;;;19.00;68.20;;;19.26;45.72;98710.59;4904413;28;123859;-76
2023/05/05 04:16:15;;;;;;;;;;;18.90;68.30;;;19.27;46.14;98715.03;4907137;28;119684;-78
2023/05/05 04:18:41;;;;;;;;;;;18.90;68.50;;;19.28;46.10;98713.84;4911380;28;119012;-78
2023/05/05 04:21:08;;;;;;;;;;;19.00;68.70;;;19.29;46.20;98711.84;4907207;28;124762;-78
2023/05/05 04:23:39;;;;;;;;;;;19.00;68.80;;;19.29;46.24;98712.69;4908710;28;123817;-76
2023/05/05 04:26:06;;;;;;;;;;;18.90;68.80;;;19.30;46.30;98710.69;4908483;28;120250;-78
2023/05/05 04:28:33;;;;;;;;;;;18.90;68.90;;;19.29;46.19;98706.25;4910781;28;120032;-76
2023/05/05 04:31:03;;;;;;;;;;;18.90;68.90;;;19.27;46.13;98703.03;4909675;28;123620;-76
2023/05/05 04:33:30;;;;;;;;;;;18.90;69.00;;;19.24;46.20;98707.38;4911243;28;123941;-76
2023/05/05 04:35:57;;;;;;;;;;;18.90;68.90;;;19.23;46.20;98705.75;4902803;28;119184;-75
2023/05/05 04:38:25;;;;;;;;;;;18.90;68.90;;;19.22;46.31;98720.94;4910948;28;117977;-75
2023/05/05 04:40:54;;;;;;;;;;;18.90;69.00;;;19.21;46.47;98719.34;4907960;28;124105;-76
2023/05/05 04:43:25;;;;;;;;;;;18.90;69.10;;;19.22;46.43;98725.75;4906120;28;123453;-76
2023/05/05 04:45:52;;;;;;;;;;;18.90;69.30;;;19.22;46.42;98734.97;4901278;28;119507;-77
2023/05/05 04:48:19;;;;;;;;;;;18.90;69.40;;;19.23;46.53;98733.75;4906889;28;119119;-76
2023/05/05 04:50:52;;;;;;;;;;;18.90;69.50;;;19.25;46.29;98736.22;4907549;28;124541;-76
2023/05/05 04:53:18;;;;;;;;;;;18.90;69.70;;;19.24;46.61;98735.41;4908476;28;123966;-76
2023/05/05 04:55:44;;;;;;;;;;;18.90;70.00;;;19.25;46.71;98725.81;4904581;28;119256;-76
2023/05/05 04:58:15;;;;;;;;;;;18.90;70.00;;;19.27;46.57;98733.84;4908324;28;118927;-76
2023/05/05 05:00:44;;;;;;;;;;;18.90;70.10;;;19.26;46.75;98733.00;4901034;28;124821;-76
2023/05/05 05:03:13;;;;;;;;;;;19.00;70.30;;;19.28;46.61;98736.25;4906667;28;124775;-79
2023/05/05 05:05:42;;;;;;;;;;;18.90;70.20;;;19.30;46.37;98735.91;4911149;28;118890;-77
2023/05/05 05:08:08;;;;;;;;;;;18.90;70.30;;;19.32;46.66;98748.34;4911943;28;119069;-76
2023/05/05 05:10:40;;;;;;;;;;;18.90;70.20;;;19.34;46.69;98748.81;4907226;28;124517;-75
2023/05/05 05:13:06;;;;;;;;;;;19.00;70.50;;;19.33;46.93;98749.97;4903458;28;123700;-76
2023/05/05 05:15:32;;;;;;;;;;;18.90;70.90;;;19.32;46.82;98745.56;4900994;28;120953;-76
2023/05/05 05:18:01;;;;;;;;;;;18.90;70.90;;;19.30;47.18;98747.91;4905754;28;120114;-77
2023/05/05 05:20:29;;;;;;;;;;;18.90;71.40;;;19.24;47.65;98751.41;4907435;28;124992;-75
2023/05/05 05:22:56;;;;;;;;;;;18.90;71.60;;;19.20;47.68;98756.91;4901432;28;124357;-78
2023/05/05 05:25:25;;;;;;;;;;;18.90;71.80;;;19.16;47.68;98753.25;4904946;28;120170;-75
2023/05/05 05:27:51;;;;;;;;;;;18.70;71.80;;;19.14;47.85;98769.63;4895680;28;119717;-76
2023/05/05 05:30:18;;;;;;;;;;;18.80;72.10;;;19.11;47.84;98764.75;4904196;28;124751;-76
2023/05/05 05:32:44;;;;;;;;;;;18.80;72.40;;;19.10;48.01;98763.13;4905801;28;123839;-77
2023/05/05 05:35:15;;;;;;;;;;;18.80;72.50;;;19.07;47.88;98763.88;4911412;28;119655;-76
2023/05/05 05:37:42;;;;;;;;;;;18.80;72.50;;;19.06;48.19;98765.06;4909649;28;118317;-76
2023/05/05 05:40:09;;;;;;;;;;;18.70;72.90;;;19.04;48.31;98761.81;4908614;28;124596;-77
2023/05/05 05:42:38;;;;;;;;;;;18.70;73.00;;;19.00;48.24;98758.94;4899764;28;124550;-77
2023/05/05 05:45:06;;;;;;;;;;;18.70;73.30;;;19.00;48.64;98764.56;4907093;28;119420;-77
2023/05/05 05:47:32;;;;;;;;;;;18.70;73.80;;;18.96;48.60;98761.66;4899163;28;118288;-76
2023/05/05 05:50:03;;;;;;;;;;;18.70;73.70;;;19.01;48.84;98766.16;4904791;28;126362;-76
2023/05/05 05:52:30;;;;;;;;;;;18.70;73.80;;;19.08;48.73;98765.50;4895763;28;124456;-77
2023/05/05 05:54:56;;;;;;;;;;;18.70;74.00;;;19.15;48.95;98774.03;4908474;28;119263;-77
2023/05/05 05:57:27;;;;;;;;;;;18.80;74.40;;;19.22;49.57;98770.56;4898701;28;118931;-76
2023/05/05 05:59:53;;;;;;;;;;;18.80;75.20;;;19.32;49.01;98784.78;4895636;28;124220;-75
2023/05/05 06:02:20;;;;;;;;;;;18.90;75.20;;;19.41;48.81;98790.94;4908561;28;123999;-83
2023/05/05 06:04:49;;;;;;;;;;;18.90;75.00;;;19.50;48.32;98787.09;4906010;28;120520;-76
2023/05/05 06:07:15;;;;;;;;;;;19.00;74.80;;;19.54;48.29;98771.16;4906208;28;119757;-78
2023/05/05 06:09:44;;;;;;;;;;;19.10;74.80;;;19.56;48.29;98774.41;4894845;28;123287;-76
2023/05/05 06:12:13;;;;;;;;;;;19.10;74.80;;;19.57;48.38;98770.41;4888531;28;125345;-78
2023/05/05 06:14:40;;;;;;;;;;;19.10;74.90;;;19.54;48.31;98777.56;4906839;28;118850;-76
2023/05/05 06:17:08;;;;;;;;;;;19.10;75.00;;;19.54;48.67;98776.78;4908782;28;119098;-77
2023/05/05 06:19:39;;;;;;;;;;;19.10;75.00;;;19.56;48.45;98780.81;4910477;28;124055;-75
2023/05/05 06:22:05;;;;;;;;;;;19.20;75.30;;;19.61;48.51;98774.06;4905503;28;124129;-75
2023/05/05 06:24:32;;;;;;;;;;;19.20;75.10;;;19.68;48.60;98777.03;4906631;28;119517;-75
2023/05/05 06:27:01;;;;;;;;;;;19.30;75.20;;;19.75;48.62;98776.38;4906681;28;118830;-77
2023/05/05 06:29:27;;;;;;;;;;;19.30;75.50;;;19.79;48.63;98772.41;4908568;28;124799;-78
2023/05/05 06:31:54;;;;;;;;;;;19.30;75.50;;;19.84;48.37;98774.09;4903396;28;123565;-77
2023/05/05 06:34:29;;;;;;;;;;;19.40;75.70;;;19.91;48.47;98784.63;4908537;28;119668;-78
2023/05/05 06:37:06;;;;;;;;;;;19.40;75.80;;;19.99;48.42;98780.78;4902812;28;117902;-77
2023/05/05 06:39:39;;;;;;;;;;;19.50;75.80;;;20.08;48.00;98779.31;4903045;28;124230;-78
2023/05/05 06:42:05;;;;;;;;;;;19.60;75.90;;;20.16;47.96;98780.22;4897666;28;124048;-77
2023/05/05 06:44:37;;;;;;;;;;;19.70;75.90;;;20.27;48.06;98786.00;4892234;28;119523;-81
2023/05/05 06:47:03;;;;;;;;;;;19.70;75.80;;;20.38;47.57;98784.16;4905432;28;118581;-78
2023/05/05 06:49:30;;;;;;;;;;;19.80;75.70;;;20.47;47.70;98789.50;4894295;28;124580;-77
2023/05/05 06:51:56;;;;;;;;;;;19.90;75.80;;;20.55;47.72;98782.00;4898141;28;124011;-77
2023/05/05 06:54:25;;;;;;;;;;;19.90;75.60;;;20.60;47.25;98776.88;4898222;28;120487;-78
2023/05/05 06:56:51;;;;;;;;;;;20.00;75.70;;;20.64;47.29;98786.16;4889776;28;120432;-78
2023/05/05 06:59:17;;;;;;;;;;;20.10;75.60;;;20.66;47.35;98785.78;4892136;28;124310;-87
2023/05/05 07:01:44;;;;;;;;;;;20.10;75.40;;;20.72;47.03;98789.88;4921857;28;122836;-79
2023/05/05 07:04:13;;;;;;;;;;;20.20;75.40;;;20.78;47.10;98793.16;4906543;28;119595;-80
2023/05/05 07:06:39;;;;;;;;;;;20.20;75.40;;;20.83;47.09;98790.03;4902928;28;117970;-80
2023/05/05 07:09:06;;;;;;;;;;;20.30;75.50;;;20.88;46.89;98796.13;4908133;28;123923;-75
2023/05/05 07:11:38;;;;;;;;;;;20.30;75.40;;;20.92;46.94;98799.75;4900832;28;123972;-80
2023/05/05 07:14:05;;;;;;;;;;;20.40;75.60;;;20.98;46.67;98797.44;4903827;28;119142;-80
2023/05/05 07:16:40;;;;;;;;;;;20.50;75.60;;;21.04;47.01;98800.72;4899403;28;118778;-76
2023/05/05 07:19:06;;;;;;;;;;;20.50;75.50;;;21.07;46.84;98797.97;4899243;28;124593;-81
2023/05/05 07:21:35;;;;;;;;;;;20.50;75.60;;;21.10;46.85;98800.00;4897981;28;123578;-80
2023/05/05 07:24:02;;;;;;;;;;;20.60;75.60;;;21.13;46.95;98799.22;4903128;28;119596;-78
2023/05/05 07:26:28;;;;;;;;;;;20.60;75.50;;;21.16;46.39;98797.66;4898759;28;118987;-79
2023/05/05 07:28:58;;;;;;;;;;;20.60;75.30;;;21.19;46.39;98803.31;4911196;28;123612;-78
2023/05/05 07:31:25;;;;;;;;;;;20.70;75.30;;;21.23;46.75;98796.94;4907891;28;124637;-79
2023/05/05 07:33:51;;;;;;;;;;;20.70;75.30;;;21.24;46.61;98807.78;4906407;28;119476;-80
2023/05/05 07:36:17;;;;;;;;;;;20.70;75.20;;;21.28;46.43;98805.00;4897936;28;119646;-76
2023/05/05 07:38:46;;;;;;;;;;;20.80;75.20;;;21.28;46.33;98808.63;4905802;28;124333;-79
2023/05/05 07:41:13;;;;;;;;;;;20.80;74.90;;;21.29;46.50;98812.25;4906652;28;123506;-79
2023/05/05 07:43:42;;;;;;;;;;;20.80;74.80;;;21.27;46.51;98803.41;4907260;28;119632;-80
2023/05/05 07:46:08;;;;;;;;;;;20.90;74.80;;;21.28;46.24;98805.00;4905403;28;119682;-79
2023/05/05 07:48:34;;;;;;;;;;;20.90;74.80;;;21.28;46.02;98807.81;4906350;28;124336;-81
2023/05/05 07:51:01;;;;;;;;;;;20.90;74.80;;;21.31;46.29;98812.69;4905773;28;123929;-76
2023/05/05 07:53:30;;;;;;;;;;;20.90;74.80;;;21.30;46.19;98811.06;4908002;28;119509;-77
2023/05/05 07:55:57;;;;;;;;;;;20.90;74.60;;;21.29;45.95;98817.88;4898456;28;118743;-80
2023/05/05 07:58:23;;;;;;;;;;;20.90;74.50;;;21.30;46.39;98825.91;4897963;28;123551;-79
2023/05/05 08:00:50;;;;;;;;;;;21.00;74.70;;;21.30;46.47;98827.91;4904525;28;124221;-77
2023/05/05 08:03:22;;;;;;;;;;;21.00;74.90;;;21.29;46.50;98834.75;4906722;28;119549;-78
2023/05/05 08:06:09;;;;;;;;;;;20.90;75.00;;;21.26;46.59;98829.88;4912111;28;118885;-78
2023/05/05 08:08:36;;;;;;;;;;;20.90;75.20;;;21.24;47.00;98837.88;4920084;28;124489;-75
2023/05/05 08:11:08;;;;;;;;;;;20.90;75.60;;;21.22;47.83;98834.66;4908108;28;123859;-78
2023/05/05 08:13:35;;;;;;;;;;;20.90;76.30;;;21.20;47.68;98835.03;4917214;28;118646;-78
2023/05/05 08:16:01;;;;;;;;;;;20.90;76.70;;;21.17;47.96;98833.81;4909646;28;119511;-77
2023/05/05 08:18:37;;;;;;;;;;;20.90;76.90;;;21.15;48.27;98830.56;4905749;28;124136;-79
2023/05/05 08:21:11;;;;;;;;;;;20.90;77.30;;;21.13;48.56;98827.31;4899133;28;124233;-86
2023/05/05 08:23:38;;;;;;;;;;;20.90;77.70;;;21.12;48.86;98827.72;4901538;28;119671;-76
2023/05/05 08:26:08;;;;;;;;;;;20.90;78.10;;;21.13;49.06;98827.31;4894738;28;117858;-76
2023/05/05 08:28:37;;;;;;;;;;;20.90;78.40;;;21.13;49.21;98827.31;4907716;28;122497;-79
2023/05/05 08:31:08;;;;;;;;;;;20.90;78.70;;;21.14;49.58;98828.13;4920077;28;122911;-78
2023/05/05 08:33:34;;;;;;;;;;;20.90;79.40;;;21.14;49.92;98834.56;4904771;28;120604;-78
2023/05/05 08:36:00;;;;;;;;;;;20.90;79.90;;;21.13;50.18;98835.75;4906603;28;118964;-82
2023/05/05 08:38:35;;;;;;;;;;;20.80;80.40;;;21.14;50.51;98837.38;4895369;28;124357;-80
2023/05/05 08:41:10;;;;;;;;;;;20.80;80.80;;;21.14;50.62;98826.16;4896367;28;124428;-80
2023/05/05 08:43:42;;;;;;;;;;;20.80;81.30;;;21.15;51.18;98836.19;4893164;28;118895;-76
2023/05/05 08:46:10;;;;;;;;;;;20.80;81.80;;;21.17;51.36;98839.44;4895002;28;118860;-78
2023/05/05 08:48:40;;;;;;;;;;;20.80;82.40;;;21.19;51.61;98839.03;4906526;28;124514;-80
2023/05/05 08:51:19;;;;;;;;;;;20.90;82.80;;;21.23;51.64;98836.28;4911056;28;123892;-82
2023/05/05 08:53:47;;;;;;;;;;;20.90;83.10;;;21.24;51.93;98837.88;4912653;28;119490;-77
2023/05/05 08:56:20;;;;;;;;;;;20.90;83.50;;;21.25;52.15;98837.53;4904093;28;119002;-79
2023/05/05 08:58:47;;;;;;;;;;;20.90;83.80;;;21.28;51.60;98831.13;4895450;28;124360;-76
2023/05/05 09:01:19;;;;;;;;;;;20.90;84.00;;;21.30;51.55;98836.34;4893189;28;124089;-80
2023/05/05 09:03:46;;;;;;;;;;;20.90;83.80;;;21.32;51.34;98828.34;4900100;28;119550;-77
2023/05/05 09:06:14;;;;;;;;;;;20.90;83.50;;;21.34;51.05;98837.22;4893570;28;118042;-79
2023/05/05 09:08:43;;;;;;;;;;;20.90;83.30;;;21.36;51.07;98846.88;4916691;28;124494;-80
2023/05/05 09:11:10;;;;;;;;;;;21.00;83.40;;;21.39;50.63;98834.09;4894424;28;123720;-83
2023/05/05 09:13:36;;;;;;;;;;;20.90;82.90;;;21.43;50.17;98834.13;4895982;28;119515;-79
2023/05/05 09:16:03;;;;;;;;;;;21.00;82.80;;;21.46;50.20;98827.72;4898579;28;118901;-81
2023/05/05 09:18:32;;;;;;;;;;;21.00;82.70;;;21.47;49.97;98830.16;4899139;28;124395;-77
2023/05/05 09:20:58;;;;;;;;;;;21.10;82.80;;;21.50;50.39;98823.78;4898736;28;126441;-80
2023/05/05 09:23:25;;;;;;;;;;;21.00;82.70;;;21.53;50.56;98828.63;4903735;28;120491;-82
2023/05/05 09:26:07;;;;;;;;;;;21.10;82.90;;;21.52;49.84;98824.19;4891683;28;119953;-80
2023/05/05 09:28:34;;;;;;;;;;;21.10;82.80;;;21.54;49.89;98818.97;4908874;28;122746;-83
2023/05/05 09:31:15;;;;;;;;;;;21.10;82.60;;;21.56;49.73;98815.78;4890888;28;123929;-75
2023/05/05 09:33:48;;;;;;;;;;;21.20;82.50;;;21.57;49.87;98817.41;4893986;28;120067;-78
2023/05/05 09:36:14;;;;;;;;;;;21.20;82.40;;;21.59;49.76;98818.63;4891839;28;118649;-80
2023/05/05 09:39:03;;;;;;;;;;;21.20;82.50;;;21.55;50.04;98809.38;4894360;28;124593;-79
2023/05/05 09:41:44;;;;;;;;;;;21.20;82.50;;;21.58;49.76;98814.22;4892537;28;125309;-80
2023/05/05 09:44:11;;;;;;;;;;;21.20;82.10;;;21.60;49.54;98811.84;4914990;28;118971;-77
2023/05/05 09:46:51;;;;;;;;;;;21.20;82.00;;;21.63;49.55;98810.25;4897735;28;118147;-78
2023/05/05 09:49:25;;;;;;;;;;;21.20;82.00;;;21.70;49.55;98810.31;4903014;28;124322;-83
2023/05/05 09:51:57;;;;;;;;;;;21.30;82.10;;;21.78;49.14;98814.00;4900406;28;124656;-77
2023/05/05 09:54:39;;;;;;;;;;;21.30;82.00;;;21.87;49.40;98805.22;4897249;28;119500;-84
2023/05/05 09:57:33;;;;;;;;;;;21.40;82.20;;;21.91;49.05;98804.06;4904614;28;119045;-78
2023/05/05 10:00:01;;;;;;;;;;;21.50;82.00;;;21.99;48.16;98800.13;4894313;28;124952;-77
2023/05/05 10:02:37;;;;;;;;;;;21.50;81.40;;;22.07;48.14;98806.63;4891726;28;123915;-81
2023/05/05 10:05:11;;;;;;;;;;;21.60;80.90;;;22.14;47.74;98805.84;4888502;28;119442;-77
2023/05/05 10:07:39;;;;;;;;;;;21.60;80.60;;;22.22;47.39;98796.31;4891099;28;119023;-77
2023/05/05 10:10:16;;;;;;;;;;;21.70;80.00;;;22.28;46.45;98789.94;4898568;28;124255;-79
2023/05/05 10:12:46;;;;;;;;;;;21.80;79.30;;;22.33;46.28;98797.19;4898524;28;123746;-80
2023/05/05 10:15:14;;;;;;;;;;;21.90;78.60;;;22.38;45.48;98794.03;4893224;28;120541;-76
2023/05/05 10:17:47;;;;;;;;;;;21.90;77.60;;;22.41;44.63;98786.81;4906643;28;121106;-79
2023/05/05 10:20:14;;;;;;;;;;;21.90;76.40;;;22.41;44.49;98790.41;4897679;28;124091;-80
2023/05/05 10:22:58;;;;;;;;;;;21.90;75.90;;;22.42;44.61;98782.78;4904889;28;124034;-77
2023/05/05 10:25:34;;;;;;;;;;;22.00;75.80;;;22.46;44.48;98775.97;4905897;28;120068;-80
2023/05/05 10:28:13;;;;;;;;;;;22.00;75.60;;;22.48;44.32;98779.19;4905090;28;118838;-79
2023/05/05 10:30:45;;;;;;;;;;;22.10;75.50;;;22.53;44.46;98778.00;4903245;28;124079;-78
2023/05/05 10:33:16;;;;;;;;;;;22.10;75.40;;;22.56;44.31;98774.41;4903952;28;122210;-76
2023/05/05 10:35:49;;;;;;;;;;;22.20;75.30;;;22.60;44.28;98777.25;4899937;28;118874;-78
2023/05/05 10:38:15;;;;;;;;;;;22.20;75.90;;;22.62;43.71;98778.47;4898779;28;118707;-81
2023/05/05 10:40:47;;;;;;;;;;;22.20;75.10;;;22.65;44.16;98774.88;4905545;28;119390;-80
2023/05/05 10:43:16;;;;;;;;;;;22.20;74.80;;;22.66;43.94;98768.03;4894528;28;124112;-75
2023/05/05 10:45:45;;;;;;;;;;;22.30;74.70;;;22.66;43.98;98770.03;4895534;28;119856;-76
2023/05/05 10:48:46;;;;;;;;;;;22.30;74.60;;;22.66;43.97;98775.69;4901605;28;119226;-76
2023/05/05 10:51:34;;;;;;;;;;;22.30;74.60;;;22.61;44.34;98767.59;4902504;28;123587;-75
2023/05/05 10:54:35;;;;;;;;;;;22.30;74.70;;;22.59;44.36;98770.78;4899156;28;124106;-77
2023/05/05 10:57:04;;;;;;;;;;;22.30;74.90;;;22.58;44.65;98751.50;4901907;28;119428;-76
2023/05/05 10:59:39;;;;;;;;;;;22.30;74.90;;;22.60;44.66;98755.53;4907227;28;118052;-75
2023/05/05 11:02:26;;;;;;;;;;;22.30;74.90;;;22.60;44.64;98743.47;4900091;28;124330;-76
2023/05/05 11:05:21;;;;;;;;;;;22.30;74.90;;;22.62;44.42;98739.06;4920566;28;123066;-78
2023/05/05 11:07:49;;;;;;;;;;;22.30;74.90;;;22.65;44.63;98732.63;4905332;28;120032;-78
2023/05/05 11:10:23;;;;;;;;;;;22.30;75.10;;;22.70;44.37;98734.22;4898994;28;119401;-77
2023/05/05 11:12:58;;;;;;;;;;;22.30;75.20;;;22.73;44.56;98730.66;4903461;28;124847;-77
2023/05/05 11:15:36;;;;;;;;;;;22.30;75.10;;;22.74;44.20;98734.28;4902691;28;123857;-79
2023/05/05 11:18:23;;;;;;;;;;;22.40;74.70;;;22.73;44.23;98730.66;4921899;28;117154;-80
2023/05/05 11:20:59;;;;;;;;;;;22.30;74.40;;;22.74;44.14;98726.63;4904588;28;118224;-78
2023/05/05 11:23:25;;;;;;;;;;;22.40;74.60;;;22.81;44.09;98721.03;4903865;28;124168;-79
2023/05/05 11:25:52;;;;;;;;;;;22.40;74.50;;;22.85;43.99;98719.00;4901683;28;124062;-77
2023/05/05 11:28:28;;;;;;;;;;;22.50;74.40;;;22.91;43.84;98723.06;4901071;28;119854;-76